KCSM/CSM METAR and TAF weather

Enter ICAO airport designator
Station Type Date Time Source
KCSM METAR 2018/12/12 16:53 UTC NOAA

KCSM 121653Z 02007KT 10SM CLR 06/M02 A2990 RMK AO2 SLP128 T00611022


Station Type Date Time Source
KCSM Decoded METAR 2018/12/12 16:53 UTC NOAA

CLINTON-SHERMAN AIRPORT, OK, United States (KCSM) 35-21E 99-12W 588M
Dec 12, 2018 - 11:53 AM EST / 2018.12.12 1653 UTC
Wind: from the NNE (020 degrees) at 8 MPH (7 KT):0
Visibility: 10 mile(s):0
Sky conditions: clear
Temperature: 43.0 F (6.1 C)
Dew Point: 28.0 F (-2.2 C)
Relative Humidity: 55%
Pressure (altimeter): 29.9 in. Hg (1012 hPa)
ob: KCSM 121653Z 02007KT 10SM CLR 06/M02 A2990 RMK AO2 SLP128 T00611022
cycle: 17

Station Type Date Time Source
KCSM TAF 2018/12/12 18:24 UTC NOAA

TAF KCSM 121723Z 1218/1318 02006KT P6SM BKN250
FM121900 17010KT P6SM SCT250
FM130900 36020G30KT P6SM BKN015
FM131200 36032G42KT P6SM OVC080


Example: see airport list